Buoy 43528

sailwx.info

Track history (hours):
 
Tides and Currents Weather Stations Pressure Air Temp Water Temp Dewpoint Dewpoint Depression Visibility Wind Speed Wind Dir Waves Ship Positions

Drifting buoy 43528

Last reported at 2016-Apr-29 17:00 UTC. Time now 2016-Apr-29 19:47 UTC.
Position N 22°10' E 142°32'.

Water temperature 27.7 ° C

Date/timePositionNaut miles runAvg speedWind from/ knotsBaromVisibWave heightAir tempDewpointWater temp
2016-Apr-29 17:00N 22°10' E 142°32'0 0.0 27.7
2016-Apr-29 16:00N 22°10' E 142°32'0 0.0 27.7
2016-Apr-29 13:00N 22°10' E 142°32'0 0.1 27.8
2016-Apr-29 12:00N 22°10' E 142°32'1 0.7 27.9
2016-Apr-29 10:00N 22°10' E 142°30'1 1.0 27.9
2016-Apr-29 09:00N 22°11' E 142°30'1 0.4 27.9
2016-Apr-29 07:00N 22°10' E 142°29'3 0.9 28.0
2016-Apr-29 04:00N 22°09' E 142°27'1 0.3 28.0
2016-Apr-29 01:00N 22°08' E 142°26'1 0.9 27.9
2016-Apr-29 00:00N 22°08' E 142°25'0 0.4 27.9
2016-Apr-28 23:00N 22°08' E 142°25'0 0.0 27.8
2016-Apr-28 22:00N 22°08' E 142°25'2 0.9 27.9
2016-Apr-28 20:00N 22°08' E 142°23'1 1.1 27.9
2016-Apr-28 19:00N 22°08' E 142°24'4 0.5 27.9
2016-Apr-28 11:00N 22°07' E 142°21'3 1.1 28.1
2016-Apr-28 08:00N 22°05' E 142°18'2 0.8 28.2
2016-Apr-28 05:00N 22°03' E 142°16'3 0.7 28.2
2016-Apr-28 01:00N 22°00' E 142°15'0 0.0 28.1
2016-Apr-28 00:00N 22°00' E 142°15'1 1.5 28.1
2016-Apr-27 23:00N 21°59' E 142°15'0 0.0 28.0
2016-Apr-27 20:00N 21°59' E 142°15'1 1.1 28.1
2016-Apr-27 19:00N 21°58' E 142°14'1 0.6 28.1
2016-Apr-27 17:00N 21°59' E 142°13'1 1.4 28.1
2016-Apr-27 16:00N 21°58' E 142°12'0 0.0 28.1
2016-Apr-27 15:00N 21°58' E 142°12'3 0.9 28.2
2016-Apr-27 12:00N 21°56' E 142°10'1 1.4 28.3
2016-Apr-27 11:00N 21°55' E 142°09'0 0.0 28.4
2016-Apr-27 10:00N 21°55' E 142°09'0 0.0 28.5
2016-Apr-27 09:00N 21°55' E 142°09'1 1.2 28.6
2016-Apr-27 08:00N 21°54' E 142°09'1 0.7 28.7
2016-Apr-27 06:00N 21°52' E 142°09'0 0.0 28.8
2016-Apr-27 05:00N 21°52' E 142°09'1 0.7 28.8
2016-Apr-27 03:00N 21°51' E 142°09'1 0.2 29.1
2016-Apr-27 00:00N 21°50' E 142°09'1 0.7 28.5
2016-Apr-26 23:00N 21°50' E 142°08'0 0.2 28.2
2016-Apr-26 21:00N 21°50' E 142°08'2 0.5 28.0
2016-Apr-26 16:00N 21°49' E 142°06'0 0.1 28.1
2016-Apr-26 12:00N 21°49' E 142°06'2 0.8 28.2
2016-Apr-26 10:00N 21°47' E 142°06'1 0.5 28.4
2016-Apr-26 08:00N 21°46' E 142°05'1 0.4 -0.1
2016-Apr-26 05:00N 21°45' E 142°06'1 0.5 29.8
2016-Apr-26 03:00N 21°44' E 142°05'1 0.4 29.4
2016-Apr-26 01:00N 21°44' E 142°05'1 0.7 28.6
2016-Apr-26 00:00N 21°43' E 142°05'0 0.0 28.1
2016-Apr-25 23:00N 21°43' E 142°05'1 0.6 27.9
2016-Apr-25 21:00N 21°42' E 142°05'1 0.7 27.8
2016-Apr-25 20:00N 21°41' E 142°05'0 0.2 27.8
2016-Apr-25 19:00N 21°41' E 142°05'1 0.6 27.8
2016-Apr-25 18:00N 21°41' E 142°05'1 0.7 27.8
2016-Apr-25 17:00N 21°40' E 142°06'1 0.8 27.9
2016-Apr-25 16:00N 21°39' E 142°06'1 0.1 27.9
2016-Apr-25 12:00N 21°40' E 142°07'0 0.3 27.9
2016-Apr-25 11:00N 21°39' E 142°07'0 0.2 27.9
2016-Apr-25 10:00N 21°39' E 142°07'0 0.2 27.9
2016-Apr-25 09:00N 21°39' E 142°07'1 0.7 27.9
2016-Apr-25 08:00N 21°39' E 142°06'1 0.5 27.9
2016-Apr-25 07:00N 21°38' E 142°06'1 0.7 28.0
2016-Apr-25 06:00N 21°38' E 142°07'0 0.0 28.0
2016-Apr-25 05:00N 21°38' E 142°07'2 0.6 28.0
2016-Apr-25 01:00N 21°36' E 142°06'0 0.0 27.9
2016-Apr-25 00:00N 21°36' E 142°06'1 0.7 27.9
2016-Apr-24 23:00N 21°35' E 142°07'1 0.3 27.9
2016-Apr-24 21:00N 21°34' E 142°06'0 0.5 27.8
2016-Apr-24 20:00N 21°34' E 142°07'1 0.8 27.8
2016-Apr-24 19:00N 21°34' E 142°07'0 0.5 27.8
2016-Apr-24 18:00N 21°33' E 142°07'1 1.1 27.9
2016-Apr-24 17:00N 21°33' E 142°08'0 0.0 27.9
2016-Apr-24 16:00N 21°33' E 142°08'2 0.4 27.9
2016-Apr-24 12:00N 21°31' E 142°09'0 0.4 27.9
2016-Apr-24 11:00N 21°31' E 142°09'1 0.6 27.9
2016-Apr-24 10:00N 21°30' E 142°08'0 0.5 27.9
2016-Apr-24 09:00N 21°30' E 142°08'0 0.2 28.0
2016-Apr-24 08:00N 21°30' E 142°08'1 0.6 28.0
2016-Apr-24 07:00N 21°30' E 142°08'1 0.6 28.0
2016-Apr-24 05:00N 21°29' E 142°09'0 0.0 28.1
2016-Apr-24 04:00N 21°29' E 142°09'0 0.0 28.1
2016-Apr-24 03:00N 21°29' E 142°09'1 0.4 28.0
2016-Apr-24 01:00N 21°28' E 142°09'0 0.4 27.9
2016-Apr-24 00:00N 21°28' E 142°08'1 0.4 27.9
2016-Apr-23 21:00N 21°27' E 142°07'0 0.5 27.9
2016-Apr-23 20:00N 21°26' E 142°07'0 0.3 27.9
2016-Apr-23 19:00N 21°26' E 142°07'2 1.6 27.9
2016-Apr-23 18:00N 21°25' E 142°07'0 0.0 27.9
2016-Apr-23 17:00N 21°25' E 142°07'0 0.2 27.9
2016-Apr-23 16:00N 21°25' E 142°07'2 0.4 27.9
2016-Apr-23 12:00N 21°24' E 142°08'0 0.4 27.9
2016-Apr-23 11:00N 21°23' E 142°08'1 0.4 28.0
2016-Apr-23 09:00N 21°23' E 142°08'1 0.9 28.0
2016-Apr-23 08:00N 21°22' E 142°07'0 0.0 28.0
2016-Apr-23 07:00N 21°22' E 142°07'1 0.5 28.1
2016-Apr-23 06:00N 21°21' E 142°07'1 0.5 28.1
2016-Apr-23 04:00N 21°20' E 142°08'0 0.0 28.2
2016-Apr-23 03:00N 21°20' E 142°08'1 0.4 28.2
2016-Apr-23 01:00N 21°20' E 142°09'0 0.4 28.0
2016-Apr-23 00:00N 21°19' E 142°09'0 0.0 28.0
2016-Apr-22 23:00N 21°19' E 142°09'1 0.5 27.9
2016-Apr-22 21:00N 21°19' E 142°08'0 0.3 27.9
2016-Apr-22 20:00N 21°19' E 142°08'1 1.3 27.9
2016-Apr-22 19:00N 21°18' E 142°07'0 0.0 27.9
2016-Apr-22 18:00N 21°18' E 142°07'1 1.0 27.9
2016-Apr-22 17:00N 21°17' E 142°08'1 0.3 28.0
2016-Apr-22 13:00N 21°16' E 142°09'0 0.0 28.0
2016-Apr-22 12:00N 21°16' E 142°09'0 0.1 28.0
2016-Apr-22 11:00N 21°16' E 142°09'2 1.7 28.0
2016-Apr-22 10:00N 21°16' E 142°08'0 0.1 28.1
2016-Apr-22 09:00N 21°15' E 142°08'1 0.9 28.1
2016-Apr-22 08:00N 21°15' E 142°07'0 0.3 28.2
2016-Apr-22 07:00N 21°14' E 142°07'1 0.5 -0.1
2016-Apr-22 04:00N 21°13' E 142°06'3 0.8 28.2
2016-Apr-22 00:00N 21°10' E 142°05'3 0.9 28.0
2016-Apr-21 21:00N 21°08' E 142°04'0 0.3 27.9
2016-Apr-21 20:00N 21°08' E 142°04'1 1.0 27.9
2016-Apr-21 19:00N 21°07' E 142°04'0 0.0 27.9
2016-Apr-21 17:00N 21°07' E 142°04'3 0.7 27.9
2016-Apr-21 12:00N 21°03' E 142°04'1 0.8 27.9
2016-Apr-21 11:00N 21°02' E 142°04'1 0.5 27.9
2016-Apr-21 09:00N 21°01' E 142°04'0 0.0 28.0
2016-Apr-21 08:00N 21°01' E 142°04'0 0.2 28.0
2016-Apr-21 07:00N 21°01' E 142°04'0 0.2 28.0
2016-Apr-21 04:00N 21°01' E 142°04'2 0.5 28.1
2016-Apr-21 01:00N 21°00' E 142°03'1 1.0 28.0
2016-Apr-21 00:00N 20°59' E 142°03'0 0.4 28.0
2016-Apr-20 23:00N 20°59' E 142°02'3 1.3 27.9
2016-Apr-20 21:00N 20°56' E 142°02'0 0.1 27.9
2016-Apr-20 20:00N 20°56' E 142°02'1 0.7 27.9
2016-Apr-20 19:00N 20°56' E 142°03'1 1.1 27.9
2016-Apr-20 18:00N 20°55' E 142°04'0 0.0 27.9
2016-Apr-20 17:00N 20°55' E 142°04'0 0.0 28.0
2016-Apr-20 16:00N 20°55' E 142°04'4 1.0 28.0
2016-Apr-20 12:00N 20°52' E 142°01'3 0.9 28.0
2016-Apr-20 09:00N 20°49' E 142°02'0 0.3 28.0
2016-Apr-20 08:00N 20°49' E 142°02'2 0.4 28.1
2016-Apr-20 04:00N 20°47' E 142°03'3 0.6 28.1
2016-Apr-19 23:00N 20°44' E 142°03'   28.0
Track history (hours):
 
Tides and Currents Weather Stations Pressure Air Temp Water Temp Dewpoint Dewpoint Depression Visibility Wind Speed Wind Dir Waves Ship Positions

Drifting buoy 43528

Last reported at 2016-Apr-29 17:00 UTC. Time now 2016-Apr-29 19:47 UTC.
Position N 22°10' E 142°32'.

Water temperature 27.7 ° C

Date/timePositionNaut miles runAvg speedWind from/ knotsBaromVisibWave heightAir tempDewpointWater temp
2016-Apr-29 17:00N 22°10' E 142°32'0 0.0 27.7
2016-Apr-29 16:00N 22°10' E 142°32'0 0.0 27.7
2016-Apr-29 13:00N 22°10' E 142°32'0 0.1 27.8
2016-Apr-29 12:00N 22°10' E 142°32'1 0.7 27.9
2016-Apr-29 10:00N 22°10' E 142°30'1 1.0 27.9
2016-Apr-29 09:00N 22°11' E 142°30'1 0.4 27.9
2016-Apr-29 07:00N 22°10' E 142°29'3 0.9 28.0
2016-Apr-29 04:00N 22°09' E 142°27'1 0.3 28.0
2016-Apr-29 01:00N 22°08' E 142°26'1 0.9 27.9
2016-Apr-29 00:00N 22°08' E 142°25'0 0.4 27.9
2016-Apr-28 23:00N 22°08' E 142°25'0 0.0 27.8
2016-Apr-28 22:00N 22°08' E 142°25'2 0.9 27.9
2016-Apr-28 20:00N 22°08' E 142°23'1 1.1 27.9
2016-Apr-28 19:00N 22°08' E 142°24'4 0.5 27.9
2016-Apr-28 11:00N 22°07' E 142°21'3 1.1 28.1
2016-Apr-28 08:00N 22°05' E 142°18'2 0.8 28.2
2016-Apr-28 05:00N 22°03' E 142°16'3 0.7 28.2
2016-Apr-28 01:00N 22°00' E 142°15'0 0.0 28.1
2016-Apr-28 00:00N 22°00' E 142°15'1 1.5 28.1
2016-Apr-27 23:00N 21°59' E 142°15'0 0.0 28.0
2016-Apr-27 20:00N 21°59' E 142°15'1 1.1 28.1
2016-Apr-27 19:00N 21°58' E 142°14'1 0.6 28.1
2016-Apr-27 17:00N 21°59' E 142°13'1 1.4 28.1
2016-Apr-27 16:00N 21°58' E 142°12'0 0.0 28.1
2016-Apr-27 15:00N 21°58' E 142°12'3 0.9 28.2
2016-Apr-27 12:00N 21°56' E 142°10'1 1.4 28.3
2016-Apr-27 11:00N 21°55' E 142°09'0 0.0 28.4
2016-Apr-27 10:00N 21°55' E 142°09'0 0.0 28.5
2016-Apr-27 09:00N 21°55' E 142°09'1 1.2 28.6
2016-Apr-27 08:00N 21°54' E 142°09'1 0.7 28.7
2016-Apr-27 06:00N 21°52' E 142°09'0 0.0 28.8
2016-Apr-27 05:00N 21°52' E 142°09'1 0.7 28.8
2016-Apr-27 03:00N 21°51' E 142°09'1 0.2 29.1
2016-Apr-27 00:00N 21°50' E 142°09'1 0.7 28.5
2016-Apr-26 23:00N 21°50' E 142°08'0 0.2 28.2
2016-Apr-26 21:00N 21°50' E 142°08'2 0.5 28.0
2016-Apr-26 16:00N 21°49' E 142°06'0 0.1 28.1
2016-Apr-26 12:00N 21°49' E 142°06'2 0.8 28.2
2016-Apr-26 10:00N 21°47' E 142°06'1 0.5 28.4
2016-Apr-26 08:00N 21°46' E 142°05'1 0.4 -0.1
2016-Apr-26 05:00N 21°45' E 142°06'1 0.5 29.8
2016-Apr-26 03:00N 21°44' E 142°05'1 0.4 29.4
2016-Apr-26 01:00N 21°44' E 142°05'1 0.7 28.6
2016-Apr-26 00:00N 21°43' E 142°05'0 0.0 28.1
2016-Apr-25 23:00N 21°43' E 142°05'1 0.6 27.9
2016-Apr-25 21:00N 21°42' E 142°05'1 0.7 27.8
2016-Apr-25 20:00N 21°41' E 142°05'0 0.2 27.8
2016-Apr-25 19:00N 21°41' E 142°05'1 0.6 27.8
2016-Apr-25 18:00N 21°41' E 142°05'1 0.7 27.8
2016-Apr-25 17:00N 21°40' E 142°06'1 0.8 27.9
2016-Apr-25 16:00N 21°39' E 142°06'1 0.1 27.9
2016-Apr-25 12:00N 21°40' E 142°07'0 0.3 27.9
2016-Apr-25 11:00N 21°39' E 142°07'0 0.2 27.9
2016-Apr-25 10:00N 21°39' E 142°07'0 0.2 27.9
2016-Apr-25 09:00N 21°39' E 142°07'1 0.7 27.9
2016-Apr-25 08:00N 21°39' E 142°06'1 0.5 27.9
2016-Apr-25 07:00N 21°38' E 142°06'1 0.7 28.0
2016-Apr-25 06:00N 21°38' E 142°07'0 0.0 28.0
2016-Apr-25 05:00N 21°38' E 142°07'2 0.6 28.0
2016-Apr-25 01:00N 21°36' E 142°06'0 0.0 27.9
2016-Apr-25 00:00N 21°36' E 142°06'1 0.7 27.9
2016-Apr-24 23:00N 21°35' E 142°07'1 0.3 27.9
2016-Apr-24 21:00N 21°34' E 142°06'0 0.5 27.8
2016-Apr-24 20:00N 21°34' E 142°07'1 0.8 27.8
2016-Apr-24 19:00N 21°34' E 142°07'0 0.5 27.8
2016-Apr-24 18:00N 21°33' E 142°07'1 1.1 27.9
2016-Apr-24 17:00N 21°33' E 142°08'0 0.0 27.9
2016-Apr-24 16:00N 21°33' E 142°08'2 0.4 27.9
2016-Apr-24 12:00N 21°31' E 142°09'0 0.4 27.9
2016-Apr-24 11:00N 21°31' E 142°09'1 0.6 27.9
2016-Apr-24 10:00N 21°30' E 142°08'0 0.5 27.9
2016-Apr-24 09:00N 21°30' E 142°08'0 0.2 28.0
2016-Apr-24 08:00N 21°30' E 142°08'1 0.6 28.0
2016-Apr-24 07:00N 21°30' E 142°08'1 0.6 28.0
2016-Apr-24 05:00N 21°29' E 142°09'0 0.0 28.1
2016-Apr-24 04:00N 21°29' E 142°09'0 0.0 28.1
2016-Apr-24 03:00N 21°29' E 142°09'1 0.4 28.0
2016-Apr-24 01:00N 21°28' E 142°09'0 0.4 27.9
2016-Apr-24 00:00N 21°28' E 142°08'1 0.4 27.9
2016-Apr-23 21:00N 21°27' E 142°07'0 0.5 27.9
2016-Apr-23 20:00N 21°26' E 142°07'0 0.3 27.9
2016-Apr-23 19:00N 21°26' E 142°07'2 1.6 27.9
2016-Apr-23 18:00N 21°25' E 142°07'0 0.0 27.9
2016-Apr-23 17:00N 21°25' E 142°07'0 0.2 27.9
2016-Apr-23 16:00N 21°25' E 142°07'2 0.4 27.9
2016-Apr-23 12:00N 21°24' E 142°08'0 0.4 27.9
2016-Apr-23 11:00N 21°23' E 142°08'1 0.4 28.0
2016-Apr-23 09:00N 21°23' E 142°08'1 0.9 28.0
2016-Apr-23 08:00N 21°22' E 142°07'0 0.0 28.0
2016-Apr-23 07:00N 21°22' E 142°07'1 0.5 28.1
2016-Apr-23 06:00N 21°21' E 142°07'1 0.5 28.1
2016-Apr-23 04:00N 21°20' E 142°08'0 0.0 28.2
2016-Apr-23 03:00N 21°20' E 142°08'1 0.4 28.2
2016-Apr-23 01:00N 21°20' E 142°09'0 0.4 28.0
2016-Apr-23 00:00N 21°19' E 142°09'0 0.0 28.0
2016-Apr-22 23:00N 21°19' E 142°09'1 0.5 27.9
2016-Apr-22 21:00N 21°19' E 142°08'0 0.3 27.9
2016-Apr-22 20:00N 21°19' E 142°08'1 1.3 27.9
2016-Apr-22 19:00N 21°18' E 142°07'0 0.0 27.9
2016-Apr-22 18:00N 21°18' E 142°07'1 1.0 27.9
2016-Apr-22 17:00N 21°17' E 142°08'1 0.3 28.0
2016-Apr-22 13:00N 21°16' E 142°09'0 0.0 28.0
2016-Apr-22 12:00N 21°16' E 142°09'0 0.1 28.0
2016-Apr-22 11:00N 21°16' E 142°09'2 1.7 28.0
2016-Apr-22 10:00N 21°16' E 142°08'0 0.1 28.1
2016-Apr-22 09:00N 21°15' E 142°08'1 0.9 28.1
2016-Apr-22 08:00N 21°15' E 142°07'0 0.3 28.2
2016-Apr-22 07:00N 21°14' E 142°07'1 0.5 -0.1
2016-Apr-22 04:00N 21°13' E 142°06'3 0.8 28.2
2016-Apr-22 00:00N 21°10' E 142°05'3 0.9 28.0
2016-Apr-21 21:00N 21°08' E 142°04'0 0.3 27.9
2016-Apr-21 20:00N 21°08' E 142°04'1 1.0 27.9
2016-Apr-21 19:00N 21°07' E 142°04'0 0.0 27.9
2016-Apr-21 17:00N 21°07' E 142°04'3 0.7 27.9
2016-Apr-21 12:00N 21°03' E 142°04'1 0.8 27.9
2016-Apr-21 11:00N 21°02' E 142°04'1 0.5 27.9
2016-Apr-21 09:00N 21°01' E 142°04'0 0.0 28.0
2016-Apr-21 08:00N 21°01' E 142°04'0 0.2 28.0
2016-Apr-21 07:00N 21°01' E 142°04'0 0.2 28.0
2016-Apr-21 04:00N 21°01' E 142°04'2 0.5 28.1
2016-Apr-21 01:00N 21°00' E 142°03'1 1.0 28.0
2016-Apr-21 00:00N 20°59' E 142°03'0 0.4 28.0
2016-Apr-20 23:00N 20°59' E 142°02'3 1.3 27.9
2016-Apr-20 21:00N 20°56' E 142°02'0 0.1 27.9
2016-Apr-20 20:00N 20°56' E 142°02'1 0.7 27.9
2016-Apr-20 19:00N 20°56' E 142°03'1 1.1 27.9
2016-Apr-20 18:00N 20°55' E 142°04'0 0.0 27.9
2016-Apr-20 17:00N 20°55' E 142°04'0 0.0 28.0
2016-Apr-20 16:00N 20°55' E 142°04'4 1.0 28.0
2016-Apr-20 12:00N 20°52' E 142°01'3 0.9 28.0
2016-Apr-20 09:00N 20°49' E 142°02'0 0.3 28.0
2016-Apr-20 08:00N 20°49' E 142°02'2 0.4 28.1
2016-Apr-20 04:00N 20°47' E 142°03'3 0.6 28.1
2016-Apr-19 23:00N 20°44' E 142°03'   28.0

Dump ship's entire track history